Summerdale, Alabama
Current Conditions -  °F | °C
As of 10:15 AM on Monday 26 Jan 2015 (Local Time) from KCQF Reporting Station
Clear Clear  
Wind Chill: 50°   Ceiling: Unl
Heat Index: 50°   Visibility: 10mi
Dew Point: 36°   Wind: 12mph
Humidity: 58%   Direction: 330°NNW
Pressure: 30.07"   Gusts: 21mph
Location:  30.49°N, 87.7°W
Report Text: KCQF 261615Z AUTO 33010G18KT 10SM CLR 10/02 A3007 RMK AO2
Loading
Personal Weather Stations






























Interactive Weather Map New forecast layout! Learn more

10-Day Weather Forecast

Advertisements
Track Severe Weather on mobile